ADDS METAR Data INFO
IDs: Format: Raw Decoded Include TAF

Data at: 2012 UTC 19 Oct 2017

PAOT 191953Z 07003KT 10SM FEW036 OVC070 M05/M06 A2932 RMK AO2 SNB20E43 SLP928 P0000 T10501061
PAOT 191853Z 02004KT 10SM FEW045 SCT070 M05/M06 A2932 RMK AO2 SLP929 I1000 T10501061
PAOT 191753Z 03005KT 10SM CLR M06/M07 A2933 RMK AO2 SLP931 60002 T10561067 11022 21056 56015
PAOT 191653Z 33004KT 10SM SCT009 SCT065 BKN085 M03/M04 A2934 RMK AO2 SNE28 SLP935 P0000 T10331044
PAOT 191645Z 33006KT 10SM SCT009 SCT055 BKN075 M03/M04 A2934 RMK AO2 SNE28 P0000 T10331044
PAOT 191620Z 29008KT 3SM -SN BR OVC035 M02/M04 A2935 RMK AO2 P0000 T10221044
PAOT 191613Z 29007KT 2 1/2SM -SN BR OVC031 M02/M04 A2935 RMK AO2 P0000 T10221039
PAOT 191601Z 30008KT 1 3/4SM -SN BR FEW011 OVC028 M02/M04 A2935 RMK AO2 P0000 T10221039
PAOT 191553Z 30007KT 4SM -SN BR FEW007 SCT013 OVC047 M02/M04 A2935 RMK AO2 SLP940 P0001 T10221039
PAOT 191513Z 24004KT 5SM -SN BR SCT009 OVC014 M02/M04 A2937 RMK AO2 P0000 T10221039
PAOT 191501Z 24004KT 4SM -SN BR FEW008 BKN022 OVC070 M03/M04 A2937
PAOT 191453Z 25003KT 3/4SM R09/4000VP6000FT -SN BR FEW008 OVC017 M02/M03 A2937 RMK AO2 SNE08B10 SLP947 P0001 60001 T10221033 58030 TSNO
PAOT 191446Z AUTO 24003KT 1 3/4SM R09/4000VP6000FT -SN BR BKN023 BKN040 OVC080 M02/M03 A2937 RMK AO2 SNE08B10 P0001 T10221033 TSNO
PAOT 191408Z AUTO 26009KT 8SM FEW007 OVC030 M02/M04 A2940 RMK AO2 SNE08 P0001 T10221039 TSNO
PAOT 191400Z AUTO 27008KT 2SM -SN BR FEW008 SCT014 OVC030 M02/M03 A2940 RMK AO2 P0001 T10221033 TSNO
PAOT 191353Z AUTO 28009KT 1 1/4SM R09/5000VP6000FT -SN BR FEW008 OVC022 M02/M04 A2940 RMK AO2 SNB27 SLP956 P0000 T10221039 TSNO
PAOT 191348Z AUTO 28010KT 1 1/4SM R09/3000VP6000FT -SN BR FEW008 OVC022 M02/M04 A2940 RMK AO2 SNB27 P0000 TSNO
PAOT 191343Z AUTO 29010KT 2 1/2SM R09/3000VP6000FT -SN BR FEW019 OVC026 M03/M05 A2941 RMK AO2 SNB27 P0000 T10281050 TSNO
PAOT 191324Z AUTO 19005KT 10SM SCT023 BKN028 OVC033 M03/M06 A2942 RMK AO2 T10331056 TSNO
PAOT 191253Z AUTO 14009KT 10SM SCT030 SCT039 BKN110 M04/M08 A2944 RMK AO2 SLP968 T10441078 TSNO
PAOT 191153Z AUTO 14008KT 10SM FEW070 BKN100 BKN120 M05/M08 A2946 RMK AO2 SLP976 T10501078 11039 21056 58020 TSNO
PAOT 191053Z AUTO 14005KT 10SM SCT025 SCT075 M05/M07 A2949 RMK AO2 SLP985 T10501072 TSNO
PAOT 190953Z AUTO 15005KT 10SM FEW026 M04/M07 A2951 RMK AO2 SLP991 T10441067 TSNO
PAOT 190853Z AUTO 11003KT 10SM BKN031 M04/M07 A2952 RMK AO2 SLP996 T10441072 410111050 56012 TSNO
PAOT 190753Z AUTO 00000KT 10SM OVC042 M04/M07 A2953 RMK AO2 SLP001 T10441072 TSNO
PAOT 190653Z 05003KT 10SM FEW055 OVC085 M04/M08 A2954 RMK AO2 SLP004 T10391083
PAOT 190553Z 00000KT 10SM BKN050 BKN070 M04/M08 A2956 RMK AO2 SLP008 T10441083 11028 21044 56004
PAOT 190453Z 01005KT 10SM SCT050 M04/M09 A2956 RMK AO2 SLP009 T10391089
PAOT 190353Z 36009KT 10SM CLR M03/M09 A2956 RMK AO2 SLP010 T10331094
PAOT 190253Z 01008KT 10SM FEW120 M04/M10 A2957 RMK AO2 SLP012 T10391100 55003
PAOT 190153Z 36011KT 10SM FEW120 M03/M11 A2956 RMK AO2 SLP011 T10331106
PAOT 190053Z 36006KT 10SM CLR M03/M09 A2957 RMK AO2 SLP012 T10281094
PAOT 182353Z 35010KT 10SM CLR M03/M10 A2958 RMK AO2 SLP016 T10331100 11028 21044 52004
PAOT 182253Z 36011KT 10SM CLR M03/M10 A2957 RMK AO2 SLP014 T10331100
PAOT 182153Z 01010KT 10SM FEW100 M03/M09 A2957 RMK AO2 SLP013 T10331094
PAOT 182053Z 02010KT 10SM FEW200 M03/M09 A2956 RMK AO2 SLP011 T10331089 52012
PAOT 181953Z 03013KT 10SM SCT200 M04/M08 A2956 RMK AO2 SLP008 T10391078
PAOT 181853Z 01012KT 10SM CLR M04/M07 A2954 RMK AO2 SLP002 T10441072
PAOT 181753Z 36013KT 10SM CLR M04/M07 A2953 RMK AO2 SLP999 T10391072 11011 21039 53007
PAOT 181653Z 36014KT 10SM CLR M03/M07 A2952 RMK AO2 SLP996 T10331067
PAOT 181553Z 36015KT 10SM CLR M03/M07 A2951 RMK AO2 SLP994 T10281067
PAOT 181453Z AUTO 36013KT 10SM CLR M02/M05 A2951 RMK AO2 SLP992 T10221050 53001 TSNO
PAOT 181353Z AUTO 36013KT 10SM FEW060 M02/M04 A2951 RMK AO2 SLP991 T10221044 TSNO
PAOT 181253Z AUTO 36012KT 10SM SCT080 M02/M04 A2951 RMK AO2 SLP991 T10221044 TSNO
PAOT 181153Z AUTO 36013KT 10SM CLR M01/M04 A2950 RMK AO2 SLP991 T10111039 11011 21017 57002 TSNO
PAOT 181053Z AUTO 02005KT 10SM BKN100 M02/M04 A2951 RMK AO2 SLP992 T10171044 TSNO
PAOT 180953Z AUTO 35006KT 10SM BKN100 M01/M04 A2951 RMK AO2 SLP993 T10111044 TSNO
PAOT 180853Z AUTO 35005KT 10SM FEW095 SCT120 M02/M04 A2951 RMK AO2 SLP993 T10171044 400001039 53002 TSNO